Time;durP1;ratioP1;P1;durP2;ratioP2;P2;SDS_P1;SDS_P2;PMS_P1;PMS_P2;Temp;Humidity;BMP_temperature;BMP_pressure;BME280_temperature;BME280_humidity;BME280_pressure;Samples;Min_cycle;Max_cycle;Signal;HPM_P1;HPM_P2
2024/01/28 00:01:40;;;;;;;12.85;9.02;;;;;;;3.49;100.00;103208.16;4786971;29;20485;-75
2024/01/28 00:04:05;;;;;;;14.90;7.82;;;;;;;3.44;100.00;103201.47;4778771;29;20071;-75
2024/01/28 00:06:31;;;;;;;16.83;8.40;;;;;;;3.46;100.00;103199.28;4774799;29;20562;-74
2024/01/28 00:08:56;;;;;;;15.70;9.32;;;;;;;3.42;100.00;103206.47;4781836;30;20039;-74
2024/01/28 00:11:21;;;;;;;21.52;9.70;;;;;;;3.50;100.00;103202.34;4775798;29;20035;-74
2024/01/28 00:13:47;;;;;;;20.50;8.35;;;;;;;3.56;100.00;103200.41;4781297;29;20044;-74
2024/01/28 00:16:20;;;;;;;15.32;8.70;;;;;;;3.52;100.00;103199.28;4774039;29;20040;-74
2024/01/28 00:18:45;;;;;;;;;;;;;;;3.44;100.00;103198.72;4773919;29;20039;-75
2024/01/28 00:21:11;;;;;;;22.58;8.05;;;;;;;3.46;100.00;103202.03;4776230;29;19936;-74
2024/01/28 00:23:36;;;;;;;15.23;7.50;;;;;;;3.53;100.00;103199.00;4777494;29;20050;-74
2024/01/28 00:26:04;;;;;;;13.68;7.75;;;;;;;3.52;100.00;103196.50;4780251;29;20035;-74
2024/01/28 00:28:30;;;;;;;17.25;8.55;;;;;;;3.38;100.00;103198.97;4792932;29;20396;-73
2024/01/28 00:30:56;;;;;;;19.88;9.45;;;;;;;3.34;100.00;103201.44;4779344;30;20027;-73
2024/01/28 00:33:21;;;;;;;18.80;8.77;;;;;;;3.36;100.00;103199.25;4774189;30;20118;-73
2024/01/28 00:35:47;;;;;;;18.23;8.65;;;;;;;3.38;100.00;103197.03;4780053;30;20047;-74
2024/01/28 00:38:12;;;;;;;14.60;8.43;;;;;;;3.31;100.00;103190.94;4779010;29;20121;-75
2024/01/28 00:40:38;;;;;;;14.82;7.50;;;;;;;3.30;100.00;103185.66;4777877;29;20039;-75
2024/01/28 00:43:03;;;;;;;18.35;7.80;;;;;;;3.36;100.00;103188.16;4769136;29;20031;-75
2024/01/28 00:45:31;;;;;;;16.33;7.80;;;;;;;3.31;100.00;103185.41;4781831;29;20046;-74
2024/01/28 00:47:56;;;;;;;13.68;6.38;;;;;;;3.29;100.00;103181.22;4779220;29;20032;-74
2024/01/28 00:50:21;;;;;;;17.85;7.40;;;;;;;3.22;100.00;103187.00;4777255;30;20097;-75
2024/01/28 00:52:48;;;;;;;12.90;7.07;;;;;;;3.21;100.00;103191.72;4777166;29;20092;-75
2024/01/28 00:55:13;;;;;;;15.77;7.75;;;;;;;3.19;100.00;103193.09;4772552;29;20039;-75
2024/01/28 00:57:38;;;;;;;18.60;8.70;;;;;;;3.14;100.00;103201.38;4781962;29;20054;-75
2024/01/28 01:00:05;;;;;;;18.17;7.88;;;;;;;3.24;100.00;103201.41;4774161;29;20063;-74
2024/01/28 01:02:30;;;;;;;15.15;7.78;;;;;;;3.25;100.00;103205.84;4779558;29;20515;-74
2024/01/28 01:04:56;;;;;;;13.13;7.22;;;;;;;3.22;100.00;103198.91;4778030;30;20039;-75
2024/01/28 01:07:21;;;;;;;16.33;7.57;;;;;;;3.21;100.00;103196.44;4778269;29;20035;-75
2024/01/28 01:09:47;;;;;;;15.40;7.78;;;;;;;3.22;100.00;103187.84;4777988;29;20039;-75
2024/01/28 01:12:12;;;;;;;12.40;7.47;;;;;;;3.21;100.00;103185.34;4778167;29;20035;-75
2024/01/28 01:14:37;;;;;;;20.83;7.85;;;;;;;3.17;100.00;103178.69;4780905;29;20484;-75
2024/01/28 01:17:03;;;;;;;17.95;8.95;;;;;;;3.18;100.00;103170.13;4778155;29;20144;-75
2024/01/28 01:19:29;;;;;;;12.50;6.82;;;;;;;3.18;100.00;103177.59;4781781;29;20035;-75
2024/01/28 01:21:56;;;;;;;15.68;7.28;;;;;;;3.21;100.00;103174.28;4773079;29;20041;-75
2024/01/28 01:24:22;;;;;;;23.90;9.10;;;;;;;3.19;100.00;103176.50;4778167;29;20035;-74
2024/01/28 01:26:47;;;;;;;16.20;7.57;;;;;;;3.16;100.00;103166.81;4778079;29;20488;-75
2024/01/28 01:29:12;;;;;;;16.58;8.35;;;;;;;3.12;100.00;103171.22;4780823;29;20587;-74
2024/01/28 01:31:38;;;;;;;20.65;8.00;;;;;;;3.18;100.00;103167.38;4776653;29;20036;-75
2024/01/28 01:34:03;;;;;;;12.77;7.25;;;;;;;3.21;100.00;103161.28;4783310;29;20497;-74
2024/01/28 01:36:29;;;;;;;14.10;7.13;;;;;;;3.18;100.00;103159.06;4782404;29;20054;-75
2024/01/28 01:38:54;;;;;;;12.73;7.18;;;;;;;3.24;100.00;103146.06;4780846;29;20131;-76
2024/01/28 01:41:19;;;;;;;15.63;7.43;;;;;;;2.96;100.00;103148.16;4796810;29;20035;-76
2024/01/28 01:43:45;;;;;;;18.60;7.88;;;;;;;2.89;100.00;103144.84;4784620;29;20039;-76
2024/01/28 01:46:11;;;;;;;16.55;8.15;;;;;;;2.66;100.00;103129.50;4781621;29;20035;-76
2024/01/28 01:48:37;;;;;;;12.57;7.80;;;;;;;2.46;100.00;103130.22;4777337;29;20040;-76
2024/01/28 01:51:06;;;;;;;12.93;7.97;;;;;;;2.56;100.00;103122.00;4779092;30;20096;-76
2024/01/28 01:53:32;;;;;;;11.50;6.95;;;;;;;2.44;100.00;103122.19;4794242;29;20035;-77
2024/01/28 01:55:57;;;;;;;13.90;8.13;;;;;;;2.49;100.00;103118.66;4777032;29;20080;-76
2024/01/28 01:58:24;;;;;;;15.20;9.07;;;;;;;2.60;100.00;103125.06;4789242;29;20042;-76
2024/01/28 02:00:49;;;;;;;16.55;7.82;;;;;;;2.67;100.00;103136.69;4785205;29;20065;-76
2024/01/28 02:03:15;;;;;;;16.17;7.55;;;;;;;2.76;100.00;103134.25;4791756;29;20500;-76
2024/01/28 02:05:40;;;;;;;13.20;7.15;;;;;;;2.60;100.00;103130.59;4784168;29;20050;-76
2024/01/28 02:08:06;;;;;;;18.25;8.57;;;;;;;2.62;100.00;103134.75;4780866;29;20027;-76
2024/01/28 02:10:31;;;;;;;17.17;10.02;;;;;;;2.58;100.00;103124.50;4783561;29;20458;-76
2024/01/28 02:12:57;;;;;;;17.45;8.45;;;;;;;2.73;100.00;103129.28;4792990;29;20118;-76
2024/01/28 02:15:22;;;;;;;19.20;8.77;;;;;;;2.76;100.00;103128.72;4778745;29;20116;-76
2024/01/28 02:17:48;;;;;;;11.00;7.60;;;;;;;2.82;100.00;103122.09;4782908;29;20035;-76
2024/01/28 02:20:13;;;;;;;20.83;7.75;;;;;;;2.91;100.00;103126.03;4778787;29;20037;-76
2024/01/28 02:22:39;;;;;;;14.77;8.30;;;;;;;2.74;100.00;103114.31;4784630;29;20108;-77
2024/01/28 02:25:05;;;;;;;16.27;6.95;;;;;;;2.61;100.00;103113.75;4779390;29;20070;-76
2024/01/28 02:27:30;;;;;;;18.42;8.20;;;;;;;2.67;100.00;103105.44;4777909;29;21260;-76
2024/01/28 02:29:56;;;;;;;23.02;8.65;;;;;;;2.84;100.00;103109.66;4779039;29;20032;-76
2024/01/28 02:32:21;;;;;;;23.38;8.32;;;;;;;2.63;100.00;103099.63;4792946;29;20039;-76
2024/01/28 02:34:46;;;;;;;17.25;8.32;;;;;;;2.67;100.00;103108.22;4780971;29;20031;-76
2024/01/28 02:37:12;;;;;;;20.00;8.90;;;;;;;2.48;100.00;103097.63;4784973;29;20102;-76
2024/01/28 02:39:38;;;;;;;15.70;7.68;;;;;;;2.61;100.00;103104.59;4780601;29;20027;-76
2024/01/28 02:42:04;;;;;;;18.80;8.25;;;;;;;2.43;100.00;103103.94;4792425;29;20035;-77
2024/01/28 02:44:30;;;;;;;16.13;8.13;;;;;;;2.62;100.00;103106.28;4782245;29;20046;-76
2024/01/28 02:47:01;;;;;;;18.27;7.57;;;;;;;2.56;100.00;103107.34;4779129;29;20036;-76
2024/01/28 02:49:26;;;;;;;10.68;7.68;;;;;;;2.41;100.00;103099.78;4780977;30;20566;-76
2024/01/28 02:51:51;;;;;;;16.63;8.52;;;;;;;2.42;100.00;103101.44;4782000;29;20035;-77
2024/01/28 02:54:17;;;;;;;22.90;8.23;;;;;;;2.51;100.00;103088.81;4780525;30;20035;-76
2024/01/28 02:56:42;;;;;;;16.95;8.20;;;;;;;2.45;100.00;103089.88;4784496;29;20477;-74
2024/01/28 02:59:10;;;;;;;21.25;7.93;;;;;;;2.28;100.00;103090.06;4778442;30;20456;-75
2024/01/28 03:01:44;;;;;;;16.27;7.90;;;;;;;2.23;100.00;103088.09;4777681;29;20042;-75
2024/01/28 03:04:09;;;;;;;11.65;7.95;;;;;;;2.34;100.00;103077.06;4783466;29;20142;-75
2024/01/28 03:06:34;;;;;;;16.85;7.68;;;;;;;2.37;100.00;103076.56;4786397;29;20113;-75
2024/01/28 03:09:00;;;;;;;13.07;8.15;;;;;;;2.15;100.00;103063.72;4777526;29;20031;-75
2024/01/28 03:11:25;;;;;;;21.70;8.68;;;;;;;2.19;100.00;103064.88;4781582;29;20042;-74
2024/01/28 03:13:50;;;;;;;17.90;9.13;;;;;;;2.22;100.00;103053.25;4778306;30;20028;-74
2024/01/28 03:16:16;;;;;;;23.80;10.00;;;;;;;2.20;100.00;103063.75;4782964;29;20027;-75
2024/01/28 03:18:41;;;;;;;19.60;8.73;;;;;;;2.22;100.00;103058.78;4775461;29;20039;-74
2024/01/28 03:21:06;;;;;;;12.65;8.50;;;;;;;2.38;100.00;103056.94;4783916;29;20039;-74
2024/01/28 03:23:31;;;;;;;20.42;8.50;;;;;;;2.30;100.00;103054.69;4772105;30;20036;-74
2024/01/28 03:25:57;;;;;;;20.25;7.85;;;;;;;2.18;100.00;103051.31;4778886;30;20054;-74
2024/01/28 03:28:22;;;;;;;19.40;8.95;;;;;;;2.28;100.00;103056.03;4775890;29;20103;-75
2024/01/28 03:30:47;;;;;;;15.93;9.07;;;;;;;2.39;100.00;103043.94;4779818;30;20489;-74
2024/01/28 03:33:13;;;;;;;15.05;8.07;;;;;;;2.58;100.00;103039.59;4774597;29;20035;-75
2024/01/28 03:35:38;;;;;;;20.00;8.13;;;;;;;2.51;100.00;103047.34;4774408;30;20035;-74
2024/01/28 03:38:06;;;;;;;20.95;8.52;;;;;;;2.75;100.00;103046.88;4776673;29;20513;-74
2024/01/28 03:40:31;;;;;;;16.10;7.70;;;;;;;2.52;100.00;103045.38;4779862;29;20039;-75
2024/01/28 03:42:57;;;;;;;15.20;8.13;;;;;;;2.53;100.00;103052.56;4792689;29;20093;-74
2024/01/28 03:45:22;;;;;;;14.48;8.65;;;;;;;2.43;100.00;103045.09;4784384;29;20118;-74
2024/01/28 03:47:47;;;;;;;19.67;9.13;;;;;;;2.42;100.00;103051.69;4776889;29;20057;-75
2024/01/28 03:50:13;;;;;;;16.60;8.50;;;;;;;2.35;100.00;103053.88;4782415;29;20421;-74
2024/01/28 03:52:38;;;;;;;17.50;7.97;;;;;;;2.33;100.00;103045.84;4780227;29;20066;-74
2024/01/28 03:55:04;;;;;;;17.63;8.52;;;;;;;2.22;100.00;103042.22;4783354;29;20038;-74
2024/01/28 03:57:29;;;;;;;15.68;8.93;;;;;;;2.32;100.00;103041.44;4774525;29;20030;-74
2024/01/28 03:59:54;;;;;;;18.55;8.07;;;;;;;2.44;100.00;103028.19;4775435;29;20042;-74
2024/01/28 04:02:20;;;;;;;14.13;8.45;;;;;;;2.31;100.00;103030.66;4776629;29;20043;-74
2024/01/28 04:04:45;;;;;;;16.27;8.27;;;;;;;2.18;100.00;103020.91;4775775;29;20069;-74
2024/01/28 04:07:10;;;;;;;15.30;9.55;;;;;;;2.13;100.00;103021.72;4773416;29;20038;-74
2024/01/28 04:09:39;;;;;;;14.40;8.60;;;;;;;2.40;100.00;103017.97;4792745;29;20695;-74
2024/01/28 04:12:04;;;;;;;12.50;7.28;;;;;;;2.47;100.00;103018.56;4789246;29;20035;-74
2024/01/28 04:14:30;;;;;;;20.58;8.73;;;;;;;2.47;100.00;103021.31;4782058;30;20072;-74
2024/01/28 04:16:57;;;;;;;13.77;8.38;;;;;;;2.39;100.00;103019.09;4782194;29;20031;-75
2024/01/28 04:19:22;;;;;;;16.23;8.45;;;;;;;2.13;100.00;103015.34;4778088;29;20050;-75
2024/01/28 04:21:48;;;;;;;12.65;8.52;;;;;;;2.15;100.00;103014.00;4780573;29;20509;-75
2024/01/28 04:24:13;;;;;;;15.77;8.45;;;;;;;2.19;100.00;103003.22;4778493;30;20130;-75
2024/01/28 04:26:38;;;;;;;15.80;8.40;;;;;;;1.99;100.00;103004.78;4777965;29;20094;-76
2024/01/28 04:29:04;;;;;;;14.65;8.13;;;;;;;2.14;100.00;103005.97;4778892;30;20477;-73
2024/01/28 04:31:30;;;;;;;10.57;7.57;;;;;;;2.25;100.00;103002.16;4777267;29;20031;-73
2024/01/28 04:33:57;;;;;;;13.45;8.20;;;;;;;2.05;100.00;103002.88;4780119;29;20564;-73
2024/01/28 04:36:23;;;;;;;11.70;7.68;;;;;;;2.15;100.00;103000.19;4778073;29;20031;-75
2024/01/28 04:38:48;;;;;;;17.77;8.30;;;;;;;1.97;100.00;102989.59;4767969;30;20092;-73
2024/01/28 04:41:14;;;;;;;11.98;7.88;;;;;;;1.97;100.00;103001.44;4774319;29;20039;-73
2024/01/28 04:43:40;;;;;;;17.55;8.32;;;;;;;1.91;100.00;103001.69;4777051;29;20035;-73
2024/01/28 04:46:05;;;;;;;12.20;7.85;;;;;;;2.09;100.00;102992.97;4781857;29;20054;-73
2024/01/28 04:48:30;;;;;;;13.30;8.20;;;;;;;2.28;100.00;102995.25;4779295;30;20070;-73
2024/01/28 04:50:56;;;;;;;11.23;7.88;;;;;;;2.20;100.00;102997.44;4779640;29;20088;-75
2024/01/28 04:53:22;;;;;;;21.17;9.27;;;;;;;2.02;100.00;102995.97;4790961;29;20031;-74
2024/01/28 04:55:47;;;;;;;21.00;8.57;;;;;;;1.91;100.00;103002.53;4778081;29;20468;-73
2024/01/28 04:58:13;;;;;;;11.13;7.65;;;;;;;1.90;100.00;102995.34;4777436;29;20118;-73
2024/01/28 05:00:38;;;;;;;11.82;8.05;;;;;;;2.05;100.00;102991.00;4776585;29;20793;-73
2024/01/28 05:03:04;;;;;;;12.77;7.35;;;;;;;1.91;100.00;102985.94;4785873;29;20038;-72
2024/01/28 05:05:29;;;;;;;14.65;7.00;;;;;;;1.91;100.00;102983.19;4775369;29;20031;-73
2024/01/28 05:07:54;;;;;;;15.38;10.25;;;;;;;2.00;100.00;102983.50;4777386;29;20168;-73
2024/01/28 05:10:19;;;;;;;19.33;7.85;;;;;;;2.15;100.00;102980.00;4781631;29;20084;-73
2024/01/28 05:12:45;;;;;;;15.43;7.95;;;;;;;2.17;100.00;102978.66;4769918;29;20189;-74
2024/01/28 05:15:14;;;;;;;12.77;8.50;;;;;;;2.29;100.00;102972.88;4780495;29;20039;-73
2024/01/28 05:17:39;;;;;;;18.00;7.38;;;;;;;2.20;100.00;102972.56;4774889;29;20550;-72
2024/01/28 05:20:08;;;;;;;16.70;8.57;;;;;;;2.22;100.00;102964.00;4778803;29;20142;-74
2024/01/28 05:22:34;;;;;;;12.55;7.13;;;;;;;2.16;100.00;102960.38;4772144;29;20035;-73
2024/01/28 05:25:02;;;;;;;14.63;7.63;;;;;;;2.08;100.00;102952.63;4782439;29;20039;-73
2024/01/28 05:27:28;;;;;;;13.75;7.30;;;;;;;2.05;100.00;102941.28;4776543;29;20036;-76
2024/01/28 05:29:55;;;;;;;15.15;7.97;;;;;;;2.05;100.00;102935.75;4774635;29;20093;-76
2024/01/28 05:32:21;;;;;;;13.48;7.03;;;;;;;1.96;100.00;102929.91;4778413;29;20890;-76
2024/01/28 05:34:46;;;;;;;11.73;7.68;;;;;;;2.14;100.00;102923.09;4772118;29;20096;-76
2024/01/28 05:37:14;;;;;;;10.98;7.55;;;;;;;1.98;100.00;102925.78;4774390;30;20039;-75
2024/01/28 05:39:40;;;;;;;15.73;6.97;;;;;;;1.81;100.00;102925.13;4778286;30;20046;-75
2024/01/28 05:42:05;;;;;;;11.45;7.28;;;;;;;1.96;100.00;102921.63;4777623;29;20047;-75
2024/01/28 05:44:30;;;;;;;16.10;8.13;;;;;;;1.87;100.00;102918.53;4777473;29;20483;-75
2024/01/28 05:46:56;;;;;;;13.65;7.43;;;;;;;1.75;100.00;102921.53;4775194;29;20052;-75
2024/01/28 05:49:21;;;;;;;17.27;8.63;;;;;;;1.69;100.00;102914.31;4775953;29;20100;-75
2024/01/28 05:51:46;;;;;;;22.85;8.13;;;;;;;1.76;100.00;102916.84;4775336;29;20035;-75
2024/01/28 05:54:12;;;;;;;14.02;7.28;;;;;;;1.89;100.00;102916.34;4775487;30;20080;-75
2024/01/28 05:56:37;;;;;;;18.85;8.50;;;;;;;1.81;100.00;102917.72;4775091;29;20051;-75
2024/01/28 05:59:02;;;;;;;15.13;8.02;;;;;;;1.96;100.00;102924.38;4776490;29;20029;-75
2024/01/28 06:01:28;;;;;;;12.75;8.13;;;;;;;2.09;100.00;102929.44;4776541;29;20035;-75
2024/01/28 06:03:53;;;;;;;13.75;7.90;;;;;;;1.95;100.00;102908.91;4780870;29;20652;-75
2024/01/28 06:06:18;;;;;;;14.65;7.45;;;;;;;2.13;100.00;102913.97;4778462;29;20035;-75
2024/01/28 06:08:44;;;;;;;14.13;8.00;;;;;;;2.09;100.00;102910.09;4773635;29;20035;-75
2024/01/28 06:11:09;;;;;;;15.90;7.28;;;;;;;2.18;100.00;102919.50;4777734;29;20043;-75
2024/01/28 06:13:36;;;;;;;16.15;7.65;;;;;;;2.11;100.00;102913.41;4779052;29;20054;-75
2024/01/28 06:16:02;;;;;;;13.25;7.43;;;;;;;2.01;100.00;102910.59;4784568;30;20066;-75
2024/01/28 06:18:27;;;;;;;11.73;7.72;;;;;;;2.17;100.00;102904.03;4777136;29;20070;-75
2024/01/28 06:20:53;;;;;;;16.13;9.35;;;;;;;2.24;100.00;102901.84;4777871;29;20038;-75
2024/01/28 06:23:18;;;;;;;15.38;8.00;;;;;;;2.16;100.00;102909.84;4792287;29;20047;-75
2024/01/28 06:25:43;;;;;;;17.88;7.82;;;;;;;2.14;100.00;102896.28;4782482;29;20081;-75
2024/01/28 06:28:09;;;;;;;16.42;8.45;;;;;;;1.85;100.00;102906.09;4776220;29;20036;-75
2024/01/28 06:30:35;;;;;;;18.50;8.63;;;;;;;1.72;100.00;102902.72;4779498;29;20040;-75
2024/01/28 06:33:02;;;;;;;17.48;7.35;;;;;;;1.94;100.00;102898.97;4792406;29;20040;-75
2024/01/28 06:35:28;;;;;;;17.15;7.80;;;;;;;2.09;100.00;102892.66;4794377;29;20100;-75
2024/01/28 06:37:54;;;;;;;14.98;7.53;;;;;;;2.13;100.00;102896.53;4783319;29;20032;-76
2024/01/28 06:40:20;;;;;;;24.35;8.52;;;;;;;2.14;100.00;102895.47;4779134;29;20105;-76
2024/01/28 06:42:45;;;;;;;12.93;8.07;;;;;;;2.17;100.00;102901.28;4778816;29;20044;-76
2024/01/28 06:45:10;;;;;;;16.90;6.70;;;;;;;2.29;100.00;102897.44;4779086;29;20058;-76
2024/01/28 06:47:36;;;;;;;19.33;7.93;;;;;;;2.28;100.00;102890.22;4778596;29;20048;-76
2024/01/28 06:50:01;;;;;;;19.23;7.88;;;;;;;2.10;100.00;102897.09;4777530;29;20060;-76
2024/01/28 06:52:27;;;;;;;16.70;7.07;;;;;;;1.85;100.00;102897.81;4777741;29;20043;-76
2024/01/28 06:54:52;;;;;;;13.60;7.78;;;;;;;1.94;100.00;102886.00;4782236;30;20043;-76
2024/01/28 06:57:19;;;;;;;13.50;7.30;;;;;;;2.02;100.00;102893.78;4779509;29;20414;-76
2024/01/28 06:59:47;;;;;;;15.52;7.40;;;;;;;1.85;100.00;102895.06;4776000;29;20074;-76
2024/01/28 07:02:13;;;;;;;14.10;7.50;;;;;;;2.00;100.00;102907.03;4783629;29;20039;-76
2024/01/28 07:04:39;;;;;;;15.75;7.47;;;;;;;1.94;100.00;102901.72;4789079;29;20549;-76
2024/01/28 07:07:05;;;;;;;13.93;7.35;;;;;;;1.80;100.00;102896.69;4780218;29;20032;-76
2024/01/28 07:09:31;;;;;;;14.23;7.72;;;;;;;1.80;100.00;102902.22;4797218;29;20043;-76
2024/01/28 07:11:56;;;;;;;14.32;7.63;;;;;;;1.93;100.00;102916.66;4782145;29;20078;-76
2024/01/28 07:14:22;;;;;;;13.10;7.05;;;;;;;1.97;100.00;102913.06;4773710;29;20082;-76
2024/01/28 07:16:49;;;;;;;12.27;7.00;;;;;;;2.09;100.00;102910.09;4779874;29;20036;-76
2024/01/28 07:19:14;;;;;;;12.82;8.23;;;;;;;1.95;100.00;102914.44;4780852;29;20039;-76
2024/01/28 07:21:40;;;;;;;11.90;6.63;;;;;;;1.90;100.00;102901.44;4776915;30;20039;-75
2024/01/28 07:24:05;;;;;;;13.00;6.95;;;;;;;1.90;100.00;102900.59;4782540;29;20055;-76
2024/01/28 07:26:31;;;;;;;11.75;6.65;;;;;;;2.05;100.00;102911.72;4789033;29;20450;-76
2024/01/28 07:28:56;;;;;;;13.70;7.28;;;;;;;1.77;100.00;102891.72;4780935;29;20047;-76
2024/01/28 07:31:21;;;;;;;11.00;6.63;;;;;;;1.81;100.00;102898.38;4786273;29;20122;-76
2024/01/28 07:33:47;;;;;;;19.45;7.82;;;;;;;1.95;100.00;102906.16;4788254;29;20338;-76
2024/01/28 07:36:12;;;;;;;10.10;6.60;;;;;;;1.80;100.00;102916.03;4778378;29;20040;-75
2024/01/28 07:38:38;;;;;;;13.35;7.93;;;;;;;1.69;100.00;102913.50;4794135;29;20044;-76
2024/01/28 07:41:03;;;;;;;12.75;7.82;;;;;;;1.79;100.00;102911.63;4780617;29;20035;-75
2024/01/28 07:43:29;;;;;;;11.38;7.30;;;;;;;1.65;100.00;102910.44;4779184;29;20035;-76
2024/01/28 07:45:54;;;;;;;13.48;7.43;;;;;;;1.92;100.00;102906.69;4791342;29;20043;-76
2024/01/28 07:48:19;;;;;;;13.85;7.72;;;;;;;1.56;100.00;102898.22;4776669;29;20076;-74
2024/01/28 07:50:45;;;;;;;12.45;6.68;;;;;;;1.65;100.00;102887.53;4774332;29;20039;-74
2024/01/28 07:53:12;;;;;;;16.17;8.13;;;;;;;1.61;100.00;102893.56;4781528;29;20397;-74
2024/01/28 07:55:39;;;;;;;10.73;6.45;;;;;;;1.74;100.00;102897.78;4780594;29;20138;-74
2024/01/28 07:58:04;;;;;;;12.88;6.93;;;;;;;1.56;100.00;102890.78;4777646;29;20038;-74
2024/01/28 08:00:29;;;;;;;12.70;7.68;;;;;;;1.93;100.00;102883.50;4773612;29;20155;-74
2024/01/28 08:02:55;;;;;;;13.38;7.47;;;;;;;1.55;100.00;102882.75;4776412;30;20038;-74
2024/01/28 08:05:20;;;;;;;11.65;6.70;;;;;;;1.50;100.00;102882.75;4789775;29;20553;-75
2024/01/28 08:07:46;;;;;;;18.83;7.55;;;;;;;1.58;100.00;102882.22;4777105;29;20043;-74
2024/01/28 08:10:11;;;;;;;15.75;7.57;;;;;;;1.53;100.00;102879.44;4784907;29;20059;-75
2024/01/28 08:12:36;;;;;;;17.35;7.25;;;;;;;1.60;100.00;102886.41;4793582;29;20031;-75
2024/01/28 08:15:02;;;;;;;11.63;6.80;;;;;;;1.77;100.00;102883.44;4782876;29;20177;-74
2024/01/28 08:17:28;;;;;;;14.02;6.53;;;;;;;1.77;100.00;102891.72;4780499;29;20039;-74
2024/01/28 08:19:54;;;;;;;9.48;6.47;;;;;;;1.77;100.00;102880.69;4783449;29;20058;-74
2024/01/28 08:22:19;;;;;;;12.48;6.10;;;;;;;1.72;100.00;102875.13;4776266;29;20098;-74
2024/01/28 08:24:45;;;;;;;15.48;7.22;;;;;;;1.87;100.00;102871.59;4792265;29;20095;-75
2024/01/28 08:27:10;;;;;;;13.25;6.32;;;;;;;1.79;100.00;102869.34;4778368;29;20042;-74
2024/01/28 08:29:37;;;;;;;15.82;6.88;;;;;;;1.63;100.00;102876.75;4776008;30;20103;-74
2024/01/28 08:32:03;;;;;;;15.40;6.00;;;;;;;2.19;100.00;102881.66;4773727;29;20100;-75
2024/01/28 08:34:28;;;;;;;19.33;7.40;;;;;;;1.94;100.00;102877.72;4776238;29;20035;-75
2024/01/28 08:36:53;;;;;;;12.18;6.47;;;;;;;1.97;100.00;102870.81;4778920;29;20046;-75
2024/01/28 08:39:19;;;;;;;15.50;6.05;;;;;;;2.04;100.00;102868.63;4779005;29;20039;-75
2024/01/28 08:41:44;;;;;;;8.60;5.38;;;;;;;1.85;100.00;102878.50;4772995;29;20054;-75
2024/01/28 08:44:10;;;;;;;18.95;7.38;;;;;;;1.94;100.00;102876.88;4793193;29;20043;-75
2024/01/28 08:46:39;;;;;;;19.85;6.75;;;;;;;1.98;100.00;102864.19;4780034;29;20533;-75
2024/01/28 08:49:05;;;;;;;10.05;6.45;;;;;;;2.14;100.00;102863.13;4770415;29;20043;-75
2024/01/28 08:51:30;;;;;;;14.93;6.45;;;;;;;2.08;100.00;102858.69;4773222;29;20578;-75
2024/01/28 08:53:55;;;;;;;10.57;5.95;;;;;;;2.32;100.00;102858.19;4778908;29;20532;-75
2024/01/28 08:56:21;;;;;;;16.67;7.32;;;;;;;2.43;100.00;102857.94;4775761;29;20023;-75
2024/01/28 08:58:46;;;;;;;18.98;6.85;;;;;;;2.53;100.00;102850.75;4776439;30;20508;-73
2024/01/28 09:01:13;;;;;;;17.30;6.85;;;;;;;2.43;100.00;102851.59;4789523;29;20040;-75
2024/01/28 09:03:39;;;;;;;18.52;6.45;;;;;;;2.54;100.00;102844.97;4776253;29;20036;-74
2024/01/28 09:06:05;;;;;;;10.90;6.40;;;;;;;2.55;100.00;102846.63;4776078;29;20043;-74
2024/01/28 09:08:31;;;;;;;12.68;6.15;;;;;;;2.58;100.00;102842.50;4779158;29;20118;-75
2024/01/28 09:10:56;;;;;;;11.73;5.80;;;;;;;2.60;100.00;102846.63;4779200;29;20129;-75
2024/01/28 09:13:24;;;;;;;8.57;6.00;;;;;;;2.57;100.00;102849.09;4793704;29;20055;-75
2024/01/28 09:15:49;;;;;;;6.68;5.18;;;;;;;2.62;100.00;102844.41;4776099;29;20071;-75
2024/01/28 09:18:15;;;;;;;8.52;5.57;;;;;;;2.57;100.00;102844.44;4778552;29;20070;-75
2024/01/28 09:20:40;;;;;;;17.02;6.45;;;;;;;2.62;100.00;102841.66;4772929;29;20072;-75
2024/01/28 09:23:05;;;;;;;11.43;5.00;;;;;;;2.73;100.00;102847.19;4780468;29;20123;-75
2024/01/28 09:25:32;;;;;;;7.78;5.65;;;;;;;2.75;100.00;102842.22;4778637;29;20116;-75
2024/01/28 09:27:58;;;;;;;11.98;5.93;;;;;;;2.77;100.00;102837.25;4774714;29;20459;-75
2024/01/28 09:30:23;;;;;;;16.60;6.53;;;;;;;2.72;100.00;102835.31;4775703;29;20043;-75
2024/01/28 09:32:49;;;;;;;9.38;5.35;;;;;;;2.76;100.00;102838.34;4774217;29;20132;-75
2024/01/28 09:35:14;;;;;;;13.75;6.25;;;;;;;2.80;100.00;102843.06;4776401;29;20079;-75
2024/01/28 09:37:39;;;;;;;10.60;5.25;;;;;;;2.73;100.00;102836.13;4774190;29;20066;-75
2024/01/28 09:40:05;;;;;;;13.63;5.28;;;;;;;2.76;100.00;102833.66;4777120;29;20098;-75
2024/01/28 09:42:42;;;;;;;8.50;5.07;;;;;;;2.78;100.00;102833.34;4779321;29;20077;-75
2024/01/28 09:45:08;;;;;;;10.85;6.10;;;;;;;2.75;100.00;102833.91;4776861;29;20433;-75
2024/01/28 09:47:35;;;;;;;8.70;5.38;;;;;;;2.81;100.00;102824.53;4786881;29;20557;-75
2024/01/28 09:50:03;;;;;;;10.68;5.60;;;;;;;2.80;100.00;102820.94;4781108;30;20505;-75
2024/01/28 09:52:29;;;;;;;7.60;5.03;;;;;;;2.80;100.00;102820.06;4782669;29;20451;-75
2024/01/28 09:54:55;;;;;;;9.82;4.70;;;;;;;2.87;100.00;102819.78;4781507;29;20092;-75
2024/01/28 09:57:20;;;;;;;8.63;4.47;;;;;;;2.89;100.00;102812.91;4781087;29;20032;-75
2024/01/28 09:59:47;;;;;;;9.05;5.18;;;;;;;2.86;100.00;102818.97;4778974;29;20038;-75
2024/01/28 10:02:14;;;;;;;7.68;5.00;;;;;;;2.97;100.00;102826.16;4778610;29;20127;-75
2024/01/28 10:04:40;;;;;;;6.60;4.68;;;;;;;2.96;100.00;102823.69;4778525;29;20130;-75
2024/01/28 10:07:09;;;;;;;14.15;5.55;;;;;;;2.96;100.00;102829.22;4782447;29;20739;-76
2024/01/28 10:09:34;;;;;;;16.13;6.93;;;;;;;3.02;100.00;102820.63;4780406;29;20035;-76
2024/01/28 10:12:01;;;;;;;7.82;5.35;;;;;;;3.04;100.00;102815.63;4777467;29;20050;-76
2024/01/28 10:14:27;;;;;;;8.93;5.25;;;;;;;3.09;100.00;102811.19;4791144;29;20489;-76
2024/01/28 10:16:54;;;;;;;9.95;5.05;;;;;;;3.07;100.00;102802.34;4777468;30;20069;-75
2024/01/28 10:19:20;;;;;;;11.95;5.97;;;;;;;3.15;100.00;102802.59;4779458;29;20460;-75
2024/01/28 10:21:46;;;;;;;7.43;5.50;;;;;;;3.22;100.00;102799.53;4782821;29;20042;-75
2024/01/28 10:24:12;;;;;;;11.05;4.65;;;;;;;3.26;100.00;102790.38;4780711;29;20039;-75
2024/01/28 10:26:38;;;;;;;9.27;4.88;;;;;;;4.09;100.00;102788.09;4780826;29;20043;-75
2024/01/28 10:29:03;;;;;;;8.85;5.63;;;;;;;3.74;100.00;102789.13;4774285;29;20039;-76
2024/01/28 10:31:29;;;;;;;10.77;5.13;;;;;;;3.61;100.00;102790.56;4782759;29;20038;-77
2024/01/28 10:33:55;;;;;;;19.40;5.63;;;;;;;3.57;100.00;102790.28;4785749;29;20555;-77
2024/01/28 10:36:21;;;;;;;10.27;4.95;;;;;;;3.63;100.00;102782.81;4798510;29;20023;-75
2024/01/28 10:38:48;;;;;;;8.85;4.45;;;;;;;3.69;100.00;102786.34;4785399;29;20524;-77
2024/01/28 10:41:17;;;;;;;9.48;5.35;;;;;;;3.72;100.00;102786.63;4782372;29;20049;-76
2024/01/28 10:43:57;;;;;;;10.45;4.35;;;;;;;3.81;100.00;102790.44;4784117;29;20042;-77
2024/01/28 10:46:38;;;;;;;12.82;5.20;;;;;;;3.89;100.00;102779.91;4781764;30;20842;-77
2024/01/28 10:49:05;;;;;;;8.35;4.88;;;;;;;3.93;100.00;102769.91;4783647;29;20513;-77
2024/01/28 10:51:38;;;;;;;10.40;4.28;;;;;;;3.95;100.00;102770.44;4783216;29;20035;-77
2024/01/28 10:54:09;;;;;;;18.02;5.97;;;;;;;3.91;100.00;102752.72;4792463;29;20032;-77
2024/01/28 10:56:39;;;;;;;13.05;5.35;;;;;;;4.03;100.00;102755.97;4783503;30;20027;-77
2024/01/28 10:59:04;;;;;;;11.77;5.32;;;;;;;4.03;100.00;102751.25;4779758;29;20043;-77
2024/01/28 11:01:30;;;;;;;12.98;5.90;;;;;;;4.05;100.00;102751.81;4794310;29;20035;-76
2024/01/28 11:03:57;;;;;;;9.85;4.60;;;;;;;4.04;100.00;102743.78;4797267;29;20043;-76
2024/01/28 11:06:27;;;;;;;9.27;5.10;;;;;;;4.05;100.00;102743.50;4790215;29;20046;-77
2024/01/28 11:08:54;;;;;;;9.23;4.57;;;;;;;4.11;100.00;102741.53;4786252;29;20039;-77
2024/01/28 11:11:20;;;;;;;10.75;3.90;;;;;;;4.13;100.00;102744.81;4790221;29;20035;-77
2024/01/28 11:13:46;;;;;;;9.55;5.03;;;;;;;4.19;100.00;102740.88;4792697;29;20067;-77